18:57
Airports
History
Links
Donate
Help keep this website running!
PayPal
Bitcoin
This page is community maintained. The information is intended for PC simulator navigation or reference.
Always use approved charts for navigation.
LRBS
Bucarest Baneasa
Bucarest Baneasa (LRBS)
Bucharest, Bucharest, Romania (77190)
(C)
Lat/Lng:44° 30' 11.49" N / 26° 6' 7.61" E
44.503193 / 26.102113
Elevation:297'ft / 91mMSL
ID / ICAO:LRBS
Runways:1
Longest:07-25
Concrete 3,187m / 10,454ft
Controlled:Yes
METAR18:30 GMT 2018-02-21
Altimeter: 30.06
Visibility: 1.9 statute miles
Wind: 6 knots (from 050°)
Temp: 1°c / 34°f
Humidity: 100.0%

METAR: LRBS 211830Z 05006KT 3000 BR OVC004 01/01 Q1018 R07/29//95 NOSIG

(Powered by phpweather)
Airport Radio Frequencies
Ground: 129.95
Tower: 120.8
Approach: 125.2
Nearby VORs <50NM
Nearby NDBs
Runway 07 / 25
Dimensions:3186.5 x 45.1m 10454' x 148'ft
Surface:Concrete
Edge Lights:Medium intensity
Runway 07 [A]Runway 25 [B]
Heading:073°TH 253°TH
Lat:
Lng:
44° 29' 57.2"N
26° 4' 57.95"E
44° 30' 25.79"N
26° 7' 17.26"E
ALS:ALSF-I
TDZ:Yes, lightedYes, lighted
User Notes and Comments
44° 30' 11.49" N / 26° 6' 7.61" E
Distance To
Airport ID:
Nearby Airports
(C) Bucarest Otopeni Intl 4.8 NM
LROP ( WX ) N
(U) SHTRUKLOVO 55.9 NM
LB24 S 182°
(U) SILISTRA POLKOVNIK LAMBRINOVO 61.6 NM
LB12 ESE 120°
(C) BOBOC 65.4 NM
LR82 NE 41°
(C) IANCA 79.3 NM
LR79 NE 55°
(C) FETESTI 80.5 NM
LR80 E 95°
(U) MASLAREVO 82.0 NM
LB29 SSW 202°
VFR Chart
Flight Planning at SkyVector.com